Time;durP1;ratioP1;P1;durP2;ratioP2;P2;SDS_P1;SDS_P2;PMS_P1;PMS_P2;Temp;Humidity;BMP_temperature;BMP_pressure;BME280_temperature;BME280_humidity;BME280_pressure;Samples;Min_cycle;Max_cycle;Signal;HPM_P1;HPM_P2
2023/07/08 00:00:49;;;;;;;3.73;2.03;;;;;;;20.26;48.03;101813.75;4970454;28;96979;-55
2023/07/08 00:03:15;;;;;;;2.20;2.00;;;;;;;20.26;48.22;101816.53;4992342;28;97057;-50
2023/07/08 00:05:41;;;;;;;3.50;1.83;;;;;;;20.29;48.10;101824.63;4987692;28;97371;-52
2023/07/08 00:08:24;;;;;;;2.13;1.93;;;;;;;20.29;48.97;101819.03;4991743;28;97044;-56
2023/07/08 00:10:51;;;;;;;3.63;1.80;;;;;;;20.30;48.30;101812.16;4990155;28;97629;-56
2023/07/08 00:13:18;;;;;;;2.23;2.03;;;;;;;20.30;48.37;101808.59;4987173;28;96845;-50
2023/07/08 00:15:44;;;;;;;2.10;1.80;;;;;;;20.31;48.21;101808.09;4991506;28;97603;-49
2023/07/08 00:18:12;;;;;;;1.83;1.60;;;;;;;20.29;48.38;101813.44;4985489;28;97410;-54
2023/07/08 00:20:47;;;;;;;1.47;1.37;;;;;;;20.31;48.96;101808.09;4987553;28;96874;-50
2023/07/08 00:23:12;;;;;;;2.63;1.93;;;;;;;20.31;48.42;101807.34;4989744;28;97046;-52
2023/07/08 00:25:38;;;;;;;1.87;1.77;;;;;;;20.33;48.28;101804.75;4990524;28;97372;-50
2023/07/08 00:28:19;;;;;;;1.50;1.40;;;;;;;20.32;48.78;101804.00;4992544;28;97079;-52
2023/07/08 00:30:44;;;;;;;1.57;1.47;;;;;;;20.30;48.52;101800.97;4988761;28;96919;-51
2023/07/08 00:33:10;;;;;;;2.37;2.20;;;;;;;20.31;48.46;101805.28;4990855;28;97072;-53
2023/07/08 00:35:37;;;;;;;2.13;2.03;;;;;;;20.28;48.52;101809.16;4993655;28;97536;-51
2023/07/08 00:38:20;;;;;;;2.90;1.73;;;;;;;20.24;49.43;101805.91;4990985;28;97012;-55
2023/07/08 00:40:58;;;;;;;2.10;1.97;;;;;;;20.21;49.36;101806.97;4992395;28;97138;-52
2023/07/08 00:43:44;;;;;;;2.23;2.10;;;;;;;20.19;49.47;101801.13;4990997;28;98626;-51
2023/07/08 00:46:29;;;;;;;2.23;2.03;;;;;;;20.18;48.98;101799.63;4991202;28;96876;-54
2023/07/08 00:49:09;;;;;;;3.67;2.30;;;;;;;20.13;49.04;101800.47;4991122;28;96789;-52
2023/07/08 00:51:37;;;;;;;2.27;2.10;;;;;;;20.09;48.88;101802.81;4990879;28;97164;-51
2023/07/08 00:54:03;;;;;;;2.20;2.00;;;;;;;20.04;48.90;101796.03;4988389;28;97075;-51
2023/07/08 00:56:34;;;;;;;2.27;2.13;;;;;;;20.05;49.20;101794.72;4988232;28;97104;-50
2023/07/08 00:59:07;;;;;;;2.50;2.07;;;;;;;20.03;49.10;101793.75;4992314;28;97132;-51
2023/07/08 01:01:37;;;;;;;2.67;1.97;;;;;;;20.01;49.07;101797.06;4993641;28;96767;-50
2023/07/08 01:04:07;;;;;;;1.73;1.63;;;;;;;19.99;49.48;101796.84;4990858;28;96983;-50
2023/07/08 01:06:39;;;;;;;2.80;1.83;;;;;;;19.97;49.16;101804.25;4973829;28;97102;-49
2023/07/08 01:09:07;;;;;;;1.80;1.70;;;;;;;19.90;49.29;101793.69;4989439;28;97298;-52
2023/07/08 01:11:35;;;;;;;2.30;2.03;;;;;;;19.85;49.41;101795.28;4994433;28;96915;-52
2023/07/08 01:14:03;;;;;;;2.00;1.90;;;;;;;19.79;49.44;101791.81;4991855;28;97062;-51
2023/07/08 01:16:28;;;;;;;1.97;1.80;;;;;;;19.75;49.65;101801.78;4990177;28;97224;-50
2023/07/08 01:18:54;;;;;;;2.30;2.20;;;;;;;19.76;49.75;101797.69;4992007;28;97128;-50
2023/07/08 01:21:28;;;;;;;3.07;2.07;;;;;;;19.72;50.38;101786.84;4992045;28;97132;-51
2023/07/08 01:23:53;;;;;;;2.90;2.20;;;;;;;19.69;49.71;101792.72;4993233;28;97501;-49
2023/07/08 01:26:23;;;;;;;2.53;1.97;;;;;;;19.64;50.03;101794.31;4990879;28;100053;-52
2023/07/08 01:28:49;;;;;;;2.03;1.80;;;;;;;19.63;50.00;101789.25;4991642;28;96984;-51
2023/07/08 01:31:14;;;;;;;2.30;2.10;;;;;;;19.60;50.11;101782.69;4989559;28;97167;-51
2023/07/08 01:33:39;;;;;;;2.17;2.07;;;;;;;19.56;49.95;101776.66;4991643;28;97303;-51
2023/07/08 01:36:05;;;;;;;2.87;2.23;;;;;;;19.51;49.91;101776.72;4989505;28;97146;-51
2023/07/08 01:38:32;;;;;;;2.00;1.90;;;;;;;19.48;50.14;101775.75;4990599;28;99540;-49
2023/07/08 01:40:57;;;;;;;2.17;2.07;;;;;;;19.48;50.09;101778.53;4990300;28;96961;-53
2023/07/08 01:43:23;;;;;;;2.30;2.10;;;;;;;19.43;50.12;101777.34;4992741;28;97488;-51
2023/07/08 01:45:50;;;;;;;2.87;2.37;;;;;;;19.38;50.26;101772.56;4995886;28;97149;-51
2023/07/08 01:48:21;;;;;;;2.70;2.50;;;;;;;19.35;50.79;101764.50;4994599;28;97201;-53
2023/07/08 01:50:53;;;;;;;2.23;2.13;;;;;;;19.33;50.96;101781.72;4997855;28;97005;-51
2023/07/08 01:53:22;;;;;;;1.93;1.83;;;;;;;19.30;50.40;101771.63;4994690;28;97804;-51
2023/07/08 01:55:47;;;;;;;2.53;2.33;;;;;;;19.28;50.38;101770.66;4990441;28;98552;-51
2023/07/08 01:58:13;;;;;;;2.40;2.20;;;;;;;19.25;50.65;101769.66;4992125;28;96933;-51
2023/07/08 02:00:38;;;;;;;2.57;2.33;;;;;;;19.26;50.35;101773.22;4993589;28;97377;-52
2023/07/08 02:03:04;;;;;;;2.80;2.00;;;;;;;19.24;50.28;101765.34;4994166;28;97057;-51
2023/07/08 02:05:29;;;;;;;2.90;2.70;;;;;;;19.22;50.37;101770.69;4987260;28;97165;-51
2023/07/08 02:07:56;;;;;;;2.20;2.10;;;;;;;19.12;50.44;101758.41;4994993;28;96730;-51
2023/07/08 02:10:21;;;;;;;2.67;2.47;;;;;;;19.08;50.75;101760.72;4994793;28;97498;-51
2023/07/08 02:12:47;;;;;;;2.07;1.97;;;;;;;19.06;50.74;101754.16;4993163;28;99667;-50
2023/07/08 02:15:13;;;;;;;3.27;2.20;;;;;;;19.02;50.92;101759.28;4995168;28;105594;-51
2023/07/08 02:17:38;;;;;;;5.90;2.40;;;;;;;18.98;50.98;101754.00;4994845;28;97071;-52
2023/07/08 02:20:04;;;;;;;2.33;2.13;;;;;;;18.96;50.94;101744.66;4992404;28;97262;-52
2023/07/08 02:22:30;;;;;;;7.33;2.47;;;;;;;18.88;51.00;101741.69;4993124;28;97846;-52
2023/07/08 02:24:55;;;;;;;2.53;2.20;;;;;;;18.82;51.13;101741.00;4993116;28;97086;-51
2023/07/08 02:27:20;;;;;;;2.13;1.90;;;;;;;18.78;51.51;101737.00;4993228;28;97099;-50
2023/07/08 02:29:46;;;;;;;3.30;2.40;;;;;;;18.75;51.45;101738.03;4990388;28;96866;-55
2023/07/08 02:32:11;;;;;;;2.50;2.23;;;;;;;18.75;51.37;101740.81;4992436;28;97296;-52
2023/07/08 02:34:37;;;;;;;2.40;2.20;;;;;;;18.75;51.40;101747.16;4992041;28;105268;-51
2023/07/08 02:37:02;;;;;;;2.43;2.30;;;;;;;18.76;51.23;101739.56;4990796;28;97195;-51
2023/07/08 02:39:28;;;;;;;2.80;2.60;;;;;;;18.75;51.33;101736.00;4991183;28;96903;-51
2023/07/08 02:41:53;;;;;;;3.13;2.80;;;;;;;18.73;51.40;101741.34;4992410;28;97726;-50
2023/07/08 02:44:18;;;;;;;3.63;2.43;;;;;;;18.70;51.23;101736.81;4989746;28;97201;-50
2023/07/08 02:46:44;;;;;;;1.90;1.80;;;;;;;18.65;51.48;101737.63;4990076;28;106938;-52
2023/07/08 02:49:09;;;;;;;3.20;2.17;;;;;;;18.62;51.67;101733.09;4993130;28;104981;-51
2023/07/08 02:51:34;;;;;;;2.30;2.10;;;;;;;18.60;51.87;101735.66;4994224;28;104300;-52
2023/07/08 02:54:00;;;;;;;2.00;1.90;;;;;;;18.59;51.67;101731.34;4994806;28;97359;-52
2023/07/08 02:56:27;;;;;;;2.80;2.60;;;;;;;18.56;51.82;101733.16;4992353;28;97127;-51
2023/07/08 02:58:53;;;;;;;3.20;2.07;;;;;;;18.56;51.87;101738.75;4991104;28;96808;-50
2023/07/08 03:01:19;;;;;;;2.90;2.70;;;;;;;18.51;51.79;101730.41;4992072;28;97431;-51
2023/07/08 03:03:45;;;;;;;2.50;2.30;;;;;;;18.52;51.83;101726.38;4993222;28;97772;-50
2023/07/08 03:06:11;;;;;;;2.53;2.37;;;;;;;18.54;51.95;101729.38;4994100;28;96736;-54
2023/07/08 03:08:36;;;;;;;1.97;1.87;;;;;;;18.56;52.14;101733.16;4990116;28;96960;-51
2023/07/08 03:11:04;;;;;;;2.63;2.43;;;;;;;18.59;51.99;101728.56;4992328;28;102922;-50
2023/07/08 03:13:34;;;;;;;2.33;2.23;;;;;;;18.59;52.17;101723.75;4988539;28;97252;-55
2023/07/08 03:16:01;;;;;;;2.67;2.37;;;;;;;18.58;51.92;101727.81;4992404;28;96621;-51
2023/07/08 03:18:28;;;;;;;2.80;2.60;;;;;;;18.53;51.98;101725.06;4991878;28;97152;-52
2023/07/08 03:20:55;;;;;;;3.23;2.17;;;;;;;18.49;52.13;101721.81;4992097;28;96883;-50
2023/07/08 03:23:21;;;;;;;2.90;2.00;;;;;;;18.46;52.30;101720.81;4994976;28;96965;-50
2023/07/08 03:25:47;;;;;;;2.33;2.13;;;;;;;18.44;52.15;101728.16;4990951;28;97159;-51
2023/07/08 03:28:14;;;;;;;2.27;2.10;;;;;;;18.44;52.34;101725.38;4990570;28;96823;-51
2023/07/08 03:30:41;;;;;;;2.43;2.23;;;;;;;18.43;52.28;101721.88;4994049;28;97427;-52
2023/07/08 03:33:07;;;;;;;3.07;2.77;;;;;;;18.42;52.33;101725.16;4993888;28;96809;-51
2023/07/08 03:35:32;;;;;;;2.47;2.20;;;;;;;18.41;52.39;101723.66;4989560;28;97037;-51
2023/07/08 03:37:58;;;;;;;2.93;2.73;;;;;;;18.42;52.55;101720.34;4990570;28;97488;-53
2023/07/08 03:40:23;;;;;;;2.30;2.20;;;;;;;18.45;52.54;101726.94;4992139;28;110108;-52
2023/07/08 03:42:48;;;;;;;2.43;2.23;;;;;;;18.46;52.52;101720.81;4990358;28;97033;-51
2023/07/08 03:45:14;;;;;;;3.37;2.23;;;;;;;18.50;52.39;101720.56;4993410;28;100596;-51
2023/07/08 03:47:39;;;;;;;2.37;2.27;;;;;;;18.51;52.62;101724.84;4992886;28;97024;-52
2023/07/08 03:50:06;;;;;;;3.60;2.50;;;;;;;18.52;52.46;101718.00;4991041;28;97385;-52
2023/07/08 03:52:31;;;;;;;2.30;2.20;;;;;;;18.52;52.48;101718.75;4991685;28;97701;-50
2023/07/08 03:54:57;;;;;;;2.60;2.40;;;;;;;18.47;52.52;101724.38;4992557;28;97080;-52
2023/07/08 03:57:22;;;;;;;2.97;2.43;;;;;;;18.46;52.47;101723.63;4973683;28;97056;-51
2023/07/08 03:59:47;;;;;;;1.90;1.80;;;;;;;18.45;52.73;101718.56;4993014;28;97424;-50
2023/07/08 04:02:13;;;;;;;3.17;2.23;;;;;;;18.47;52.85;101722.34;4993467;28;97199;-51
2023/07/08 04:04:39;;;;;;;2.00;1.90;;;;;;;18.51;52.89;101725.59;4991397;28;96818;-51
2023/07/08 04:07:05;;;;;;;2.37;2.17;;;;;;;18.56;52.76;101724.03;4992758;28;97199;-52
2023/07/08 04:09:30;;;;;;;2.10;2.00;;;;;;;18.60;52.92;101722.47;4993353;28;98072;-51
2023/07/08 04:11:55;;;;;;;2.20;2.10;;;;;;;18.67;52.96;101719.09;4993197;28;97562;-52
2023/07/08 04:14:21;;;;;;;2.00;1.90;;;;;;;18.69;52.62;101724.91;4993540;28;97588;-51
2023/07/08 04:16:54;;;;;;;2.33;2.23;;;;;;;18.69;52.85;101716.56;4994446;28;97151;-52
2023/07/08 04:19:19;;;;;;;2.37;2.10;;;;;;;18.71;52.78;101716.03;4993484;28;97479;-53
2023/07/08 04:21:45;;;;;;;2.37;2.27;;;;;;;18.72;52.67;101714.72;4995246;28;96750;-52
2023/07/08 04:24:12;;;;;;;2.17;1.97;;;;;;;18.68;52.93;101712.25;4995467;28;97369;-54
2023/07/08 04:26:39;;;;;;;2.07;1.80;;;;;;;18.69;52.85;101724.91;4995105;28;97896;-50
2023/07/08 04:29:16;;;;;;;2.00;1.90;;;;;;;18.69;52.98;101721.38;4994476;28;97068;-52
2023/07/08 04:31:42;;;;;;;2.33;2.13;;;;;;;18.69;52.98;101721.38;4982104;28;98387;-51
2023/07/08 04:34:08;;;;;;;2.50;2.30;;;;;;;18.69;53.03;101718.59;4992261;28;97295;-50
2023/07/08 04:36:34;;;;;;;3.00;2.80;;;;;;;18.67;52.90;101721.13;4991890;28;97005;-52
2023/07/08 04:39:00;;;;;;;3.00;2.80;;;;;;;18.67;53.09;101721.13;4990425;28;97572;-50
2023/07/08 04:41:26;;;;;;;2.63;2.43;;;;;;;18.71;53.19;101724.38;4992656;28;97018;-50
2023/07/08 04:43:53;;;;;;;3.27;2.70;;;;;;;18.75;53.30;101719.28;4997425;28;97082;-52
2023/07/08 04:46:39;;;;;;;2.57;2.40;;;;;;;18.80;53.61;101723.28;4994216;28;97318;-51
2023/07/08 04:49:06;;;;;;;2.27;2.17;;;;;;;18.81;53.23;101722.75;4993877;28;97375;-50
2023/07/08 04:51:32;;;;;;;2.30;2.10;;;;;;;18.87;53.12;101719.91;4991828;28;97725;-50
2023/07/08 04:53:58;;;;;;;2.40;2.20;;;;;;;18.92;53.13;101728.19;4994384;28;96790;-50
2023/07/08 04:56:34;;;;;;;2.10;2.00;;;;;;;18.97;53.28;101740.56;4995867;28;97332;-52
2023/07/08 04:58:59;;;;;;;2.40;2.20;;;;;;;19.03;53.30;101739.22;4994846;28;97544;-50
2023/07/08 05:01:24;;;;;;;3.20;2.90;;;;;;;19.12;53.11;101730.50;4993299;28;106648;-50
2023/07/08 05:03:50;;;;;;;2.67;2.47;;;;;;;19.21;53.15;101737.75;4995762;28;97071;-50
2023/07/08 05:06:15;;;;;;;2.20;2.10;;;;;;;19.27;53.08;101732.84;4995862;28;97305;-52
2023/07/08 05:08:40;;;;;;;2.13;2.00;;;;;;;19.28;52.95;101735.13;4980619;28;102583;-51
2023/07/08 05:11:06;;;;;;;2.57;2.40;;;;;;;19.34;52.96;101735.84;4992972;28;103440;-53
2023/07/08 05:13:31;;;;;;;5.47;2.60;;;;;;;19.39;53.11;101735.00;4991468;28;97141;-51
2023/07/08 05:15:57;;;;;;;2.30;2.10;;;;;;;19.49;53.08;101740.19;4988955;28;96964;-50
2023/07/08 05:18:22;;;;;;;7.13;3.00;;;;;;;19.52;52.85;101728.75;4979250;28;98350;-52
2023/07/08 05:20:51;;;;;;;2.37;2.27;;;;;;;19.62;53.05;101738.22;4982747;28;97717;-52
2023/07/08 05:23:17;;;;;;;2.53;2.33;;;;;;;19.67;52.88;101739.44;4990810;28;96948;-50
2023/07/08 05:25:43;;;;;;;3.10;2.90;;;;;;;19.69;52.76;101740.44;4992916;28;96998;-50
2023/07/08 05:28:09;;;;;;;2.13;2.03;;;;;;;19.73;52.99;101749.25;4989632;28;109897;-51
2023/07/08 05:30:35;;;;;;;2.23;2.13;;;;;;;19.80;53.02;101743.06;4990439;28;96975;-52
2023/07/08 05:33:00;;;;;;;2.20;2.10;;;;;;;19.89;52.84;101744.69;4993721;28;96711;-51
2023/07/08 05:35:25;;;;;;;3.93;2.20;;;;;;;19.96;53.05;101752.47;4993049;28;97463;-52
2023/07/08 05:37:51;;;;;;;2.10;1.93;;;;;;;20.02;53.14;101751.09;4992155;28;98110;-52
2023/07/08 05:40:16;;;;;;;3.23;2.30;;;;;;;20.08;52.83;101739.81;4991039;28;97455;-50
2023/07/08 05:42:42;;;;;;;3.10;2.90;;;;;;;20.16;52.89;101737.91;4991911;28;97094;-52
2023/07/08 05:45:10;;;;;;;2.27;2.17;;;;;;;20.24;52.71;101741.63;4991231;28;96704;-51
2023/07/08 05:47:36;;;;;;;3.00;2.80;;;;;;;20.34;53.05;101745.50;4992057;28;98642;-52
2023/07/08 05:50:01;;;;;;;2.43;2.23;;;;;;;20.41;53.18;101744.88;4991577;28;96981;-53
2023/07/08 05:52:26;;;;;;;3.00;2.80;;;;;;;20.49;53.01;101739.41;4995549;28;96778;-56
2023/07/08 05:54:52;;;;;;;2.80;2.60;;;;;;;20.59;52.87;101738.47;4993457;28;96726;-51
2023/07/08 05:57:17;;;;;;;2.90;2.70;;;;;;;20.68;52.70;101743.66;4991251;28;97095;-51
2023/07/08 05:59:45;;;;;;;3.33;2.10;;;;;;;20.77;52.64;101740.41;4994479;28;103560;-52
2023/07/08 06:02:12;;;;;;;2.60;2.50;;;;;;;20.86;52.65;101739.97;4992837;28;97036;-54
2023/07/08 06:04:38;;;;;;;2.37;2.20;;;;;;;20.99;52.47;101741.28;4994361;28;97171;-50
2023/07/08 06:07:03;;;;;;;2.50;2.30;;;;;;;21.08;52.13;101741.59;4993430;28;97034;-53
2023/07/08 06:09:29;;;;;;;2.50;2.30;;;;;;;21.20;52.09;101734.50;4992823;28;97266;-52
2023/07/08 06:11:54;;;;;;;2.47;2.27;;;;;;;21.33;51.89;101742.13;4994333;28;105950;-54
2023/07/08 06:14:19;;;;;;;2.57;2.37;;;;;;;21.42;51.72;101741.66;4993697;28;97190;-51
2023/07/08 06:16:45;;;;;;;2.47;2.27;;;;;;;21.52;51.41;101745.50;4989881;28;98020;-53
2023/07/08 06:19:10;;;;;;;2.60;2.40;;;;;;;21.66;51.18;101749.78;4993651;28;97530;-50
2023/07/08 06:21:35;;;;;;;2.37;2.27;;;;;;;21.79;51.25;101749.75;4991999;28;97644;-52
2023/07/08 06:24:01;;;;;;;2.90;2.67;;;;;;;21.88;51.19;101752.09;4991505;28;97581;-53
2023/07/08 06:26:26;;;;;;;2.33;2.23;;;;;;;21.98;51.03;101744.72;4988805;28;97639;-52
2023/07/08 06:28:52;;;;;;;2.60;2.40;;;;;;;22.07;50.82;101749.84;4992565;28;97126;-51
2023/07/08 06:31:17;;;;;;;2.63;2.30;;;;;;;22.14;50.84;101748.44;4992221;28;96936;-52
2023/07/08 06:33:43;;;;;;;2.23;2.13;;;;;;;22.21;50.81;101742.13;4979642;28;97251;-50
2023/07/08 06:36:08;;;;;;;4.37;2.63;;;;;;;22.29;50.80;101745.75;4992942;28;97443;-54
2023/07/08 06:38:34;;;;;;;2.63;2.43;;;;;;;22.38;50.57;101734.81;4991929;28;97058;-53
2023/07/08 06:41:00;;;;;;;3.93;2.47;;;;;;;22.48;50.62;101740.66;4991788;28;96751;-53
2023/07/08 06:43:26;;;;;;;2.27;2.17;;;;;;;22.57;50.38;101742.97;4992307;28;97026;-50
2023/07/08 06:45:51;;;;;;;3.17;2.33;;;;;;;22.67;50.15;101746.06;4986015;28;97238;-50
2023/07/08 06:48:17;;;;;;;2.67;2.37;;;;;;;22.77;50.04;101733.78;4990437;28;97176;-53
2023/07/08 06:50:45;;;;;;;3.60;2.73;;;;;;;22.87;49.55;101734.78;4991984;28;97152;-52
2023/07/08 06:53:11;;;;;;;2.50;2.40;;;;;;;22.99;49.93;101732.41;4987143;28;96785;-50
2023/07/08 06:55:36;;;;;;;3.57;3.37;;;;;;;23.05;49.91;101733.00;4988477;28;109019;-54
2023/07/08 06:58:02;;;;;;;6.13;2.63;;;;;;;23.11;49.74;101733.59;4991898;28;97180;-52
2023/07/08 07:00:27;;;;;;;2.93;2.30;;;;;;;23.24;49.69;101735.53;4978187;28;97121;-54
2023/07/08 07:02:52;;;;;;;2.80;2.60;;;;;;;23.33;49.50;101737.81;4989646;28;97615;-53
2023/07/08 07:05:18;;;;;;;2.60;2.40;;;;;;;23.45;49.07;101739.75;4992045;28;96747;-51
2023/07/08 07:07:43;;;;;;;2.80;2.60;;;;;;;23.59;49.02;101737.56;4989958;28;96938;-50
2023/07/08 07:10:09;;;;;;;2.70;2.50;;;;;;;23.71;48.84;101738.69;4991021;28;97137;-53
2023/07/08 07:12:35;;;;;;;3.90;2.63;;;;;;;23.80;48.68;101733.28;4991355;28;99001;-51
2023/07/08 07:15:00;;;;;;;2.77;2.57;;;;;;;23.90;48.40;101739.09;4989194;28;97323;-50
2023/07/08 07:17:26;;;;;;;2.90;2.70;;;;;;;23.99;48.56;101735.75;4992113;28;97299;-52
2023/07/08 07:19:53;;;;;;;3.90;2.90;;;;;;;24.06;48.51;101735.03;4991382;28;97048;-51
2023/07/08 07:22:18;;;;;;;2.00;1.90;;;;;;;24.18;48.24;101724.91;4991767;28;97056;-51
2023/07/08 07:24:43;;;;;;;3.27;2.57;;;;;;;24.28;47.96;101725.09;4973701;28;98516;-55
2023/07/08 07:27:09;;;;;;;2.93;2.73;;;;;;;24.41;47.92;101727.72;4987512;28;97213;-53
2023/07/08 07:29:44;;;;;;;2.53;2.43;;;;;;;24.53;46.47;101728.81;4986815;28;97242;-53
2023/07/08 07:32:10;;;;;;;2.70;2.50;;;;;;;24.67;47.66;101729.38;4993378;28;97155;-51
2023/07/08 07:34:36;;;;;;;2.37;2.17;;;;;;;24.76;47.31;101723.94;4988991;28;97430;-55
2023/07/08 07:37:02;;;;;;;2.53;2.37;;;;;;;24.87;47.26;101732.00;4988283;28;97329;-54
2023/07/08 07:39:28;;;;;;;3.00;2.80;;;;;;;24.97;46.99;101730.06;4988667;28;96777;-52
2023/07/08 07:41:53;;;;;;;2.20;2.10;;;;;;;25.05;46.59;101750.50;4987090;28;97308;-51
2023/07/08 07:44:19;;;;;;;2.67;2.47;;;;;;;25.19;46.18;101717.22;4978747;28;97206;-51
2023/07/08 07:46:44;;;;;;;2.50;2.30;;;;;;;25.32;46.16;101722.63;4990659;28;97172;-52
2023/07/08 07:49:09;;;;;;;4.77;2.97;;;;;;;25.45;46.26;101721.63;4991994;28;97194;-53
2023/07/08 07:51:35;;;;;;;2.70;2.50;;;;;;;25.58;45.77;101721.38;4991472;28;97559;-52
2023/07/08 07:54:00;;;;;;;2.53;2.37;;;;;;;25.72;45.93;101716.97;4992660;28;98085;-53
2023/07/08 07:56:26;;;;;;;2.13;2.03;;;;;;;25.80;46.08;101723.31;4989162;28;97010;-53
2023/07/08 07:58:51;;;;;;;2.63;2.43;;;;;;;25.91;45.64;101725.66;4988140;28;99137;-53
2023/07/08 08:01:18;;;;;;;2.50;2.30;;;;;;;26.02;45.38;101719.56;4989000;28;96806;-54
2023/07/08 08:03:43;;;;;;;2.90;2.70;;;;;;;26.15;45.00;101721.38;4988637;28;97436;-50
2023/07/08 08:06:08;;;;;;;2.60;2.40;;;;;;;26.25;44.92;101720.19;4991321;28;97158;-53
2023/07/08 08:08:34;;;;;;;2.67;2.57;;;;;;;26.36;44.24;101725.34;4994143;28;97216;-54
2023/07/08 08:10:59;;;;;;;5.60;2.23;;;;;;;26.47;44.18;101730.50;4991982;28;97727;-53
2023/07/08 08:13:24;;;;;;;2.80;2.40;;;;;;;26.56;44.13;101729.84;4990684;28;96945;-52
2023/07/08 08:15:59;;;;;;;2.33;1.97;;;;;;;26.67;43.61;101722.94;4991666;28;97066;-52
2023/07/08 08:18:24;;;;;;;2.53;2.40;;;;;;;26.78;43.60;101724.59;4986352;28;97301;-53
2023/07/08 08:20:51;;;;;;;2.23;2.13;;;;;;;26.89;43.35;101730.47;4990969;28;97214;-51
2023/07/08 08:23:16;;;;;;;3.27;2.50;;;;;;;27.01;42.94;101723.00;4987937;28;97848;-52
2023/07/08 08:25:41;;;;;;;2.03;1.93;;;;;;;27.13;43.06;101726.06;4987343;28;97187;-53
2023/07/08 08:28:06;;;;;;;3.10;2.13;;;;;;;27.21;42.72;101726.72;4986751;28;97180;-51
2023/07/08 08:30:32;;;;;;;4.33;2.63;;;;;;;27.27;42.60;101724.38;4987510;28;96816;-54
2023/07/08 08:32:57;;;;;;;2.70;2.37;;;;;;;27.36;41.99;101729.38;4992172;28;97041;-50
2023/07/08 08:35:23;;;;;;;2.17;2.03;;;;;;;27.44;42.04;101724.34;4988131;28;110175;-52
2023/07/08 08:37:49;;;;;;;2.67;2.47;;;;;;;27.56;42.29;101730.22;4990047;28;97133;-54
2023/07/08 08:40:18;;;;;;;2.50;2.30;;;;;;;27.66;41.68;101739.50;4977132;28;97157;-52
2023/07/08 08:42:51;;;;;;;2.87;2.67;;;;;;;27.78;41.44;101741.22;4990339;28;97084;-52
2023/07/08 08:45:20;;;;;;;2.23;2.13;;;;;;;27.96;41.18;101734.13;4994291;28;97013;-53
2023/07/08 08:47:50;;;;;;;2.33;2.13;;;;;;;28.10;40.83;101735.28;4990186;28;97184;-54
2023/07/08 08:50:43;;;;;;;2.33;2.20;;;;;;;28.18;40.21;101724.56;4990051;28;97358;-51
2023/07/08 08:53:14;;;;;;;5.77;2.50;;;;;;;28.31;40.98;101725.50;4995112;28;97047;-54
2023/07/08 08:55:40;;;;;;;2.97;2.67;;;;;;;28.40;40.58;101725.50;4994024;28;97711;-53
2023/07/08 08:58:26;;;;;;;2.40;2.20;;;;;;;28.51;40.15;101724.94;4989489;28;97275;-53
2023/07/08 09:01:04;;;;;;;2.50;2.10;;;;;;;28.70;38.97;101724.97;4993992;28;96761;-53
2023/07/08 09:03:37;;;;;;;2.77;2.40;;;;;;;28.86;39.72;101725.44;4992258;28;97447;-52
2023/07/08 09:06:13;;;;;;;2.73;2.30;;;;;;;29.04;39.21;101723.94;4991783;28;97516;-53
2023/07/08 09:08:39;;;;;;;3.40;2.70;;;;;;;29.14;39.42;101723.94;4993477;28;96853;-50
2023/07/08 09:11:16;;;;;;;2.77;2.57;;;;;;;29.27;38.12;101723.50;4991747;28;97747;-53
2023/07/08 09:13:42;;;;;;;2.43;2.33;;;;;;;29.42;38.68;101717.50;4995097;28;97235;-51
2023/07/08 09:16:38;;;;;;;2.30;2.13;;;;;;;29.52;37.76;101707.63;4990802;28;96709;-52
2023/07/08 09:19:14;;;;;;;2.10;2.00;;;;;;;29.68;38.08;101717.25;4990523;28;96716;-53
2023/07/08 09:22:02;;;;;;;3.00;2.40;;;;;;;29.84;36.78;101705.59;4992125;28;97195;-52
2023/07/08 09:24:44;;;;;;;2.77;2.27;;;;;;;30.04;37.46;101701.28;4989199;28;97178;-51
2023/07/08 09:27:10;;;;;;;2.20;2.10;;;;;;;30.20;38.05;101710.94;4993133;28;97231;-51
2023/07/08 09:29:35;;;;;;;2.83;2.00;;;;;;;30.36;37.61;101707.09;4991042;28;97184;-51
2023/07/08 09:32:22;;;;;;;2.30;2.17;;;;;;;30.51;36.70;101703.13;4994815;28;96850;-54
2023/07/08 09:34:55;;;;;;;2.73;2.53;;;;;;;30.69;36.52;101695.78;4994225;28;100884;-53
2023/07/08 09:37:32;;;;;;;2.43;2.23;;;;;;;30.86;36.77;101698.38;4995269;28;96943;-51
2023/07/08 09:40:14;;;;;;;3.63;2.10;;;;;;;31.05;36.94;101692.53;4992510;28;97188;-52
2023/07/08 09:42:42;;;;;;;2.60;2.17;;;;;;;31.28;36.35;101694.66;4991453;28;96885;-52
2023/07/08 09:45:14;;;;;;;2.77;2.20;;;;;;;31.43;36.29;101699.19;4990889;28;96855;-52
2023/07/08 09:47:40;;;;;;;2.53;2.00;;;;;;;31.53;35.91;101694.88;4995509;28;98781;-51
2023/07/08 09:50:25;;;;;;;2.60;2.40;;;;;;;31.66;34.41;101696.38;4993053;28;96658;-54
2023/07/08 09:52:54;;;;;;;2.80;2.60;;;;;;;31.81;35.21;101693.03;4993007;28;97336;-52
2023/07/08 09:55:20;;;;;;;2.13;2.03;;;;;;;31.96;34.61;101700.34;4988247;28;97138;-50
2023/07/08 09:57:48;;;;;;;2.63;2.43;;;;;;;32.11;34.01;101689.19;4992734;28;97489;-52
2023/07/08 10:00:16;;;;;;;2.67;2.30;;;;;;;32.19;34.41;101701.09;4996232;28;96959;-54
2023/07/08 10:02:46;;;;;;;2.97;2.40;;;;;;;32.30;33.91;101688.19;4995535;28;96895;-54
2023/07/08 10:05:23;;;;;;;2.33;2.23;;;;;;;32.42;33.19;101694.56;4993661;28;98769;-53
2023/07/08 10:07:53;;;;;;;2.43;2.23;;;;;;;32.51;33.82;101700.16;4992972;28;97320;-52
2023/07/08 10:10:42;;;;;;;2.43;2.23;;;;;;;32.62;33.05;101706.44;4992785;28;97704;-53
2023/07/08 10:13:26;;;;;;;2.20;2.00;;;;;;;32.70;32.51;101707.66;4989376;28;97458;-52
2023/07/08 10:16:11;;;;;;;2.63;2.43;;;;;;;32.74;29.91;101699.34;4991350;28;98188;-50
2023/07/08 10:18:37;;;;;;;2.40;2.30;;;;;;;32.77;32.93;101700.19;4989737;28;97444;-51
2023/07/08 10:21:14;;;;;;;2.67;2.47;;;;;;;32.82;31.87;101694.09;4990000;28;97025;-51
2023/07/08 10:23:45;;;;;;;3.33;2.20;;;;;;;32.89;31.89;101692.34;4993378;28;97279;-51
2023/07/08 10:26:28;;;;;;;5.93;2.10;;;;;;;32.88;31.58;101697.28;4993508;28;97036;-54
2023/07/08 10:28:57;;;;;;;6.43;2.23;;;;;;;32.98;32.00;101705.69;4994674;28;96783;-55
2023/07/08 10:31:42;;;;;;;2.73;2.00;;;;;;;33.04;30.40;101700.34;4976281;28;96749;-51
2023/07/08 10:34:45;;;;;;;2.33;2.13;;;;;;;33.13;30.63;101690.88;4993425;28;97063;-52
2023/07/08 10:37:40;;;;;;;2.10;1.83;;;;;;;33.18;31.41;101693.31;4993076;28;97091;-52
2023/07/08 10:40:37;;;;;;;2.20;2.00;;;;;;;33.28;30.14;101698.09;4976938;28;97548;-52
2023/07/08 10:43:18;;;;;;;2.00;1.90;;;;;;;33.34;30.17;101692.72;4990177;28;96766;-53
2023/07/08 10:46:13;;;;;;;3.83;2.13;;;;;;;33.34;30.19;101690.63;4996640;28;96816;-52
2023/07/08 10:48:41;;;;;;;1.80;1.70;;;;;;;33.39;30.89;101686.63;4995447;28;97201;-52
2023/07/08 10:51:28;;;;;;;1.97;1.87;;;;;;;33.39;30.50;101686.63;4993796;28;97047;-53
2023/07/08 10:54:03;;;;;;;1.97;1.87;;;;;;;33.38;29.93;101682.28;4991723;28;97165;-52
2023/07/08 10:56:51;;;;;;;2.07;1.97;;;;;;;33.37;29.66;101680.81;4994594;28;96569;-52
2023/07/08 10:59:37;;;;;;;3.20;2.07;;;;;;;33.33;28.67;101677.75;4992091;28;98184;-53
2023/07/08 11:02:14;;;;;;;2.57;2.37;;;;;;;33.35;29.57;101672.13;4995369;28;97568;-52
2023/07/08 11:04:49;;;;;;;2.50;2.30;;;;;;;33.41;28.90;101678.16;4978896;28;96641;-51
2023/07/08 11:07:50;;;;;;;2.70;2.50;;;;;;;33.44;28.76;101679.03;4995516;28;96771;-51
2023/07/08 11:10:22;;;;;;;4.00;2.30;;;;;;;33.52;29.39;101679.47;4990272;28;98065;-53
2023/07/08 11:12:59;;;;;;;2.57;2.37;;;;;;;33.63;29.11;101676.53;4996209;28;96650;-52
2023/07/08 11:15:34;;;;;;;2.20;2.00;;;;;;;33.78;29.43;101670.22;4994429;28;97075;-51
2023/07/08 11:18:02;;;;;;;2.37;2.17;;;;;;;33.90;28.64;101675.81;4993428;28;96751;-53
2023/07/08 11:20:43;;;;;;;2.20;2.10;;;;;;;33.98;28.02;101662.69;4994621;28;97278;-51
2023/07/08 11:23:33;;;;;;;2.57;2.37;;;;;;;34.12;28.41;101676.25;4995157;28;97119;-51
2023/07/08 11:26:19;;;;;;;2.47;2.27;;;;;;;34.25;28.37;101666.94;4995526;28;96807;-51
2023/07/08 11:28:45;;;;;;;2.70;2.50;;;;;;;34.36;28.97;101672.50;4991235;28;97252;-55
2023/07/08 11:31:12;;;;;;;2.73;2.33;;;;;;;34.42;28.36;101667.09;4993849;28;97959;-50
2023/07/08 11:33:39;;;;;;;2.57;2.37;;;;;;;34.50;27.84;101661.03;4989456;28;97018;-51